createdAt,value
2022-12-25T00:01:44.817Z,26.10
2022-12-25T00:06:50.980Z,23.40
2022-12-25T00:11:56.755Z,22.10
2022-12-25T00:17:02.893Z,22.90
2022-12-25T00:22:08.680Z,25.20
2022-12-25T00:27:14.846Z,22.40
2022-12-25T00:32:20.531Z,19.60
2022-12-25T00:37:26.398Z,20.60
2022-12-25T00:42:32.471Z,23.00
2022-12-25T00:47:38.317Z,20.00
2022-12-25T00:52:46.204Z,24.30
2022-12-25T00:57:52.162Z,24.60
2022-12-25T01:03:00.408Z,28.20
2022-12-25T01:08:07.563Z,25.90
2022-12-25T01:13:13.221Z,27.10
2022-12-25T01:18:19.743Z,31.60
2022-12-25T01:23:25.464Z,27.00
2022-12-25T01:28:31.219Z,21.30
2022-12-25T01:33:36.984Z,20.70
2022-12-25T01:38:43.317Z,20.40
2022-12-25T01:44:02.664Z,19.60
2022-12-25T01:49:12.625Z,17.70
2022-12-25T01:54:22.385Z,16.60
2022-12-25T01:59:29.833Z,16.70
2022-12-25T02:04:40.504Z,15.30
2022-12-25T02:09:47.299Z,13.00
2022-12-25T02:15:01.146Z,12.40
2022-12-25T02:20:47.261Z,12.30
2022-12-25T02:26:08.180Z,13.00
2022-12-25T02:31:17.839Z,13.70
2022-12-25T02:36:26.747Z,12.00
2022-12-25T02:41:39.355Z,13.80
2022-12-25T02:47:04.883Z,13.20
2022-12-25T02:52:32.213Z,12.80
2022-12-25T02:58:01.482Z,14.50
2022-12-25T03:03:30.971Z,14.70
2022-12-25T03:08:40.265Z,13.70
2022-12-25T03:13:49.837Z,15.90
2022-12-25T03:18:58.364Z,18.30
2022-12-25T03:24:23.679Z,21.20
2022-12-25T03:29:52.021Z,20.30
2022-12-25T03:35:22.961Z,18.40
2022-12-25T03:40:57.969Z,19.20
2022-12-25T03:46:28.466Z,18.10
2022-12-25T03:51:57.518Z,17.50
2022-12-25T03:57:22.456Z,18.70
2022-12-25T04:02:47.222Z,20.20
2022-12-25T04:08:11.921Z,18.80
2022-12-25T04:13:36.524Z,17.90
2022-12-25T04:19:00.915Z,19.00
2022-12-25T04:24:26.668Z,17.80
2022-12-25T04:29:51.131Z,19.80
2022-12-25T04:35:15.503Z,17.20
2022-12-25T04:40:21.337Z,17.40
2022-12-25T04:45:27.158Z,20.00
2022-12-25T04:50:32.999Z,19.50
2022-12-25T04:55:38.757Z,18.80
2022-12-25T05:00:45.234Z,19.90
2022-12-25T05:05:51.329Z,18.40
2022-12-25T05:10:57.245Z,18.50
2022-12-25T05:16:06.723Z,20.70
2022-12-25T05:21:12.924Z,20.60
2022-12-25T05:26:21.814Z,21.20
2022-12-25T05:31:27.983Z,19.60
2022-12-25T05:36:33.922Z,20.40
2022-12-25T05:41:40.363Z,21.50
2022-12-25T05:46:46.230Z,20.70
2022-12-25T05:51:52.334Z,21.90
2022-12-25T05:56:58.217Z,20.90
2022-12-25T06:02:04.154Z,21.40
2022-12-25T06:07:10.184Z,19.60
2022-12-25T06:12:16.489Z,21.30
2022-12-25T06:17:24.616Z,23.30
2022-12-25T06:22:31.821Z,22.00
2022-12-25T06:27:37.760Z,21.60
2022-12-25T06:32:43.439Z,22.40
2022-12-25T06:37:49.240Z,23.40
2022-12-25T06:42:54.928Z,20.60
2022-12-25T06:48:01.477Z,20.80
2022-12-25T06:53:07.277Z,23.20
2022-12-25T06:58:13.117Z,23.30
2022-12-25T07:03:22.514Z,25.00
2022-12-25T07:08:28.615Z,34.10
2022-12-25T07:13:35.058Z,24.90
2022-12-25T07:18:41.432Z,21.50
2022-12-25T07:23:48.950Z,21.90
2022-12-25T07:28:56.424Z,27.30
2022-12-25T07:34:02.037Z,25.50
2022-12-25T07:39:09.909Z,22.00
2022-12-25T07:44:15.845Z,29.10
2022-12-25T07:49:21.972Z,24.80
2022-12-25T07:54:27.738Z,25.50
2022-12-25T07:59:33.820Z,21.30
2022-12-25T08:04:39.556Z,23.00
2022-12-25T08:09:45.731Z,24.50
2022-12-25T08:14:51.520Z,23.50
2022-12-25T08:19:57.249Z,22.50
2022-12-25T08:25:03.283Z,25.20
2022-12-25T08:30:10.934Z,22.60
2022-12-25T08:35:16.820Z,21.00
2022-12-25T08:41:07.097Z,22.10
2022-12-25T08:46:20.438Z,23.00
2022-12-25T08:51:26.761Z,20.50
2022-12-25T08:56:32.568Z,20.90
2022-12-25T09:01:38.309Z,23.30
2022-12-25T09:06:44.345Z,21.50
2022-12-25T09:11:50.446Z,22.40
2022-12-25T09:16:56.206Z,23.60
2022-12-25T09:22:01.981Z,26.50
2022-12-25T09:27:08.025Z,24.30
2022-12-25T09:32:13.820Z,24.10
2022-12-25T09:37:19.515Z,25.70
2022-12-25T09:42:28.683Z,25.40
2022-12-25T09:47:38.544Z,24.90
2022-12-25T09:52:50.901Z,26.50
2022-12-25T09:57:59.467Z,27.40
2022-12-25T10:03:18.039Z,25.40
2022-12-25T10:08:47.381Z,25.40
2022-12-25T10:14:11.928Z,23.90
2022-12-25T10:19:34.994Z,23.20
2022-12-25T10:24:45.733Z,22.30
2022-12-25T10:29:54.857Z,23.00
2022-12-25T10:35:01.032Z,23.90
2022-12-25T10:40:28.054Z,23.60
2022-12-25T10:45:44.655Z,23.20
2022-12-25T10:50:51.132Z,25.00
2022-12-25T10:56:00.355Z,23.70
2022-12-25T11:01:08.721Z,20.90
2022-12-25T11:06:25.712Z,21.20
2022-12-25T11:11:41.376Z,22.50
2022-12-25T11:16:47.275Z,19.70
2022-12-25T11:21:54.870Z,17.70
2022-12-25T11:27:06.018Z,17.20
2022-12-25T11:37:28.362Z,15.90
2022-12-25T11:42:39.878Z,13.20
2022-12-25T11:52:54.188Z,14.40
2022-12-25T11:58:04.505Z,14.20
2022-12-25T12:03:19.062Z,15.50
2022-12-25T12:08:25.512Z,16.30
2022-12-25T12:13:44.330Z,17.70
2022-12-25T12:18:50.927Z,16.20
2022-12-25T12:24:02.351Z,16.80
2022-12-25T12:29:25.855Z,18.20
2022-12-25T12:34:40.363Z,21.40
2022-12-25T12:39:51.520Z,43.60
2022-12-25T12:50:05.780Z,21.70
2022-12-25T12:55:13.842Z,23.00
2022-12-25T13:00:21.269Z,31.80
2022-12-25T13:05:36.320Z,34.10
2022-12-25T13:10:48.500Z,30.50
2022-12-25T13:15:55.989Z,28.40
2022-12-25T13:21:05.535Z,20.90
2022-12-25T13:26:17.149Z,21.90
2022-12-25T13:31:25.215Z,24.20
2022-12-25T13:36:36.861Z,26.10
2022-12-25T13:42:04.757Z,21.30
2022-12-25T13:47:20.460Z,20.80
2022-12-25T13:52:33.097Z,22.40
2022-12-25T13:57:41.613Z,20.80
2022-12-25T14:02:47.659Z,20.40
2022-12-25T14:07:55.683Z,22.10
2022-12-25T14:13:05.902Z,25.50
2022-12-25T14:18:17.120Z,26.50
2022-12-25T14:23:23.200Z,28.20
2022-12-25T14:28:34.562Z,28.70
2022-12-25T14:33:41.957Z,41.60
2022-12-25T14:38:58.050Z,34.90
2022-12-25T14:44:07.113Z,32.70
2022-12-25T14:49:25.391Z,29.90
2022-12-25T14:54:31.908Z,50.10
2022-12-25T14:59:37.766Z,46.90
2022-12-25T15:04:44.948Z,39.80
2022-12-25T15:09:55.901Z,32.20
2022-12-25T15:15:16.935Z,38.60
2022-12-25T15:20:25.830Z,44.30
2022-12-25T15:25:31.769Z,37.70
2022-12-25T15:30:39.413Z,32.80
2022-12-25T15:35:45.697Z,34.10
2022-12-25T15:40:51.572Z,37.30
2022-12-25T15:45:57.343Z,38.40
2022-12-25T15:51:03.304Z,39.40
2022-12-25T15:56:11.405Z,37.50
2022-12-25T16:01:18.286Z,38.30
2022-12-25T16:06:24.159Z,39.50
2022-12-25T16:11:30.063Z,36.00
2022-12-25T16:16:36.842Z,38.00
2022-12-25T16:21:45.380Z,38.80
2022-12-25T16:26:51.053Z,36.30
2022-12-25T16:31:56.859Z,36.70
2022-12-25T16:37:02.707Z,41.20
2022-12-25T16:42:08.997Z,43.90
2022-12-25T16:47:14.754Z,41.50
2022-12-25T16:52:20.984Z,41.80
2022-12-25T16:57:28.359Z,44.50
2022-12-25T17:02:34.431Z,46.60
2022-12-25T17:07:41.044Z,45.70
2022-12-25T17:12:46.832Z,43.80
2022-12-25T17:17:52.683Z,44.90
2022-12-25T17:22:58.512Z,49.00
2022-12-25T17:28:04.590Z,48.90
2022-12-25T17:33:10.458Z,44.80
2022-12-25T17:38:16.195Z,44.40
2022-12-25T17:43:22.432Z,50.30
2022-12-25T17:48:28.671Z,50.90
2022-12-25T17:53:35.799Z,49.20
2022-12-25T17:58:41.763Z,56.10
2022-12-25T18:03:48.477Z,55.10
2022-12-25T18:08:56.176Z,58.90
2022-12-25T18:14:05.338Z,66.00
2022-12-25T18:19:11.349Z,49.00
2022-12-25T18:24:17.271Z,44.80
2022-12-25T18:29:23.387Z,42.40
2022-12-25T18:34:29.168Z,45.30
2022-12-25T18:39:35.114Z,45.90
2022-12-25T18:44:40.881Z,46.30
2022-12-25T18:49:47.463Z,42.90
2022-12-25T18:54:53.470Z,41.70
2022-12-25T18:59:59.809Z,43.80
2022-12-25T19:05:06.490Z,38.90
2022-12-25T19:10:12.340Z,42.90
2022-12-25T19:15:18.252Z,38.90
2022-12-25T19:20:24.225Z,32.80
2022-12-25T19:25:30.136Z,33.80
2022-12-25T19:30:37.395Z,38.40
2022-12-25T19:35:43.314Z,34.90
2022-12-25T19:41:01.463Z,39.60
2022-12-25T19:46:10.252Z,43.50
2022-12-25T19:51:21.014Z,41.60
2022-12-25T19:56:28.425Z,37.90
2022-12-25T20:01:34.446Z,39.40
2022-12-25T20:06:42.727Z,35.30
2022-12-25T20:11:49.183Z,35.30
2022-12-25T20:16:54.976Z,41.80
2022-12-25T20:22:01.006Z,37.60
2022-12-25T20:27:06.867Z,41.40
2022-12-25T20:32:13.971Z,42.80
2022-12-25T20:37:19.847Z,35.30
2022-12-25T20:42:25.735Z,34.90
2022-12-25T20:47:31.591Z,37.60
2022-12-25T20:52:37.324Z,32.70
2022-12-25T20:57:43.881Z,34.90
2022-12-25T21:02:49.814Z,38.30
2022-12-25T21:07:57.237Z,38.00
2022-12-25T21:13:02.952Z,37.00
2022-12-25T21:18:08.900Z,34.50
2022-12-25T21:23:14.713Z,33.40
2022-12-25T21:28:20.934Z,30.20
2022-12-25T21:33:46.291Z,31.30
2022-12-25T21:38:57.389Z,33.40
2022-12-25T21:44:03.750Z,32.00
2022-12-25T21:49:11.057Z,32.30
2022-12-25T21:54:19.973Z,33.20
2022-12-25T21:59:25.976Z,32.70
2022-12-25T22:04:31.919Z,31.70
2022-12-25T22:09:38.650Z,30.00
2022-12-25T22:14:54.283Z,33.20
2022-12-25T22:20:01.204Z,33.60
2022-12-25T22:25:09.082Z,33.20
2022-12-25T22:30:17.315Z,30.90
2022-12-25T22:35:24.016Z,34.90
2022-12-25T22:40:29.874Z,34.20
2022-12-25T22:45:35.558Z,32.60
2022-12-25T22:50:41.819Z,31.30
2022-12-25T22:55:48.796Z,33.90
2022-12-25T23:00:54.743Z,31.00
2022-12-25T23:06:00.805Z,30.70
2022-12-25T23:11:07.098Z,29.50
2022-12-25T23:16:16.928Z,29.10
2022-12-25T23:21:41.736Z,29.70
2022-12-25T23:26:47.963Z,29.90
2022-12-25T23:31:54.443Z,29.00
2022-12-25T23:37:00.132Z,27.10
2022-12-25T23:42:06.524Z,23.80
2022-12-25T23:47:12.265Z,25.00
2022-12-25T23:52:18.172Z,25.80
2022-12-25T23:57:24.133Z,24.30
